sensor_id;sensor_type;location;lat;lon;timestamp;P1;durP1;ratioP1;P2;durP2;ratioP2
5696;SDS011;2873;50.966;7.210;2023-02-26T00:01:51;6.37;;;2.40;;
5696;SDS011;2873;50.966;7.210;2023-02-26T00:04:16;7.33;;;2.47;;
5696;SDS011;2873;50.966;7.210;2023-02-26T00:06:42;9.90;;;2.90;;
5696;SDS011;2873;50.966;7.210;2023-02-26T00:09:17;4.82;;;2.05;;
5696;SDS011;2873;50.966;7.210;2023-02-26T00:11:43;5.63;;;2.30;;
5696;SDS011;2873;50.966;7.210;2023-02-26T00:14:10;8.55;;;3.60;;
5696;SDS011;2873;50.966;7.210;2023-02-26T00:16:39;6.15;;;2.50;;
5696;SDS011;2873;50.966;7.210;2023-02-26T00:19:05;5.50;;;2.10;;
5696;SDS011;2873;50.966;7.210;2023-02-26T00:21:33;6.78;;;2.50;;
5696;SDS011;2873;50.966;7.210;2023-02-26T00:23:59;3.13;;;1.83;;
5696;SDS011;2873;50.966;7.210;2023-02-26T00:26:26;6.57;;;2.40;;
5696;SDS011;2873;50.966;7.210;2023-02-26T00:28:53;6.40;;;2.03;;
5696;SDS011;2873;50.966;7.210;2023-02-26T00:31:19;4.77;;;2.10;;
5696;SDS011;2873;50.966;7.210;2023-02-26T00:33:48;5.40;;;2.15;;
5696;SDS011;2873;50.966;7.210;2023-02-26T00:42:09;6.20;;;2.20;;
5696;SDS011;2873;50.966;7.210;2023-02-26T00:44:34;3.53;;;2.10;;
5696;SDS011;2873;50.966;7.210;2023-02-26T00:50:15;7.18;;;2.33;;
5696;SDS011;2873;50.966;7.210;2023-02-26T00:53:07;3.80;;;2.00;;
5696;SDS011;2873;50.966;7.210;2023-02-26T00:55:50;4.47;;;2.30;;
5696;SDS011;2873;50.966;7.210;2023-02-26T00:58:16;5.03;;;2.30;;
5696;SDS011;2873;50.966;7.210;2023-02-26T01:00:41;3.53;;;2.17;;
5696;SDS011;2873;50.966;7.210;2023-02-26T01:03:07;7.30;;;2.10;;
5696;SDS011;2873;50.966;7.210;2023-02-26T01:05:33;7.38;;;2.20;;
5696;SDS011;2873;50.966;7.210;2023-02-26T01:10:38;5.47;;;2.30;;
5696;SDS011;2873;50.966;7.210;2023-02-26T01:13:04;4.63;;;2.30;;
5696;SDS011;2873;50.966;7.210;2023-02-26T01:15:30;4.65;;;2.30;;
5696;SDS011;2873;50.966;7.210;2023-02-26T01:18:07;4.70;;;2.20;;
5696;SDS011;2873;50.966;7.210;2023-02-26T01:20:42;7.10;;;2.50;;
5696;SDS011;2873;50.966;7.210;2023-02-26T01:23:16;7.78;;;2.55;;
5696;SDS011;2873;50.966;7.210;2023-02-26T01:28:21;4.87;;;2.40;;
5696;SDS011;2873;50.966;7.210;2023-02-26T01:30:47;2.13;;;1.92;;
5696;SDS011;2873;50.966;7.210;2023-02-26T01:35:57;2.50;;;2.10;;
5696;SDS011;2873;50.966;7.210;2023-02-26T01:41:35;2.60;;;1.95;;
5696;SDS011;2873;50.966;7.210;2023-02-26T01:46:38;3.28;;;2.65;;
5696;SDS011;2873;50.966;7.210;2023-02-26T01:49:22;4.97;;;2.60;;
5696;SDS011;2873;50.966;7.210;2023-02-26T01:51:52;6.00;;;2.90;;
5696;SDS011;2873;50.966;7.210;2023-02-26T01:57:01;5.78;;;2.90;;
5696;SDS011;2873;50.966;7.210;2023-02-26T01:59:33;5.15;;;2.70;;
5696;SDS011;2873;50.966;7.210;2023-02-26T02:02:06;6.40;;;2.90;;
5696;SDS011;2873;50.966;7.210;2023-02-26T02:04:34;6.18;;;2.65;;
5696;SDS011;2873;50.966;7.210;2023-02-26T02:07:01;2.92;;;2.40;;
5696;SDS011;2873;50.966;7.210;2023-02-26T02:09:28;6.17;;;2.90;;
5696;SDS011;2873;50.966;7.210;2023-02-26T02:14:52;2.60;;;2.35;;
5696;SDS011;2873;50.966;7.210;2023-02-26T02:28:34;3.50;;;3.20;;
5696;SDS011;2873;50.966;7.210;2023-02-26T02:31:14;8.27;;;2.80;;
5696;SDS011;2873;50.966;7.210;2023-02-26T02:36:34;4.18;;;2.60;;
5696;SDS011;2873;50.966;7.210;2023-02-26T02:39:18;3.80;;;2.40;;
5696;SDS011;2873;50.966;7.210;2023-02-26T02:44:40;3.25;;;2.85;;
5696;SDS011;2873;50.966;7.210;2023-02-26T02:47:14;2.78;;;2.40;;
5696;SDS011;2873;50.966;7.210;2023-02-26T02:52:44;6.22;;;2.60;;
5696;SDS011;2873;50.966;7.210;2023-02-26T02:55:30;4.60;;;2.20;;
5696;SDS011;2873;50.966;7.210;2023-02-26T02:58:21;2.92;;;2.22;;
5696;SDS011;2873;50.966;7.210;2023-02-26T03:00:50;6.03;;;2.63;;
5696;SDS011;2873;50.966;7.210;2023-02-26T03:03:20;3.80;;;2.40;;
5696;SDS011;2873;50.966;7.210;2023-02-26T03:05:48;5.70;;;2.25;;
5696;SDS011;2873;50.966;7.210;2023-02-26T03:08:15;4.78;;;2.20;;
5696;SDS011;2873;50.966;7.210;2023-02-26T03:10:43;5.37;;;2.40;;
5696;SDS011;2873;50.966;7.210;2023-02-26T03:13:16;2.53;;;2.10;;
5696;SDS011;2873;50.966;7.210;2023-02-26T03:29:25;3.58;;;2.40;;
5696;SDS011;2873;50.966;7.210;2023-02-26T03:34:40;4.68;;;2.70;;
5696;SDS011;2873;50.966;7.210;2023-02-26T03:38:14;3.95;;;2.05;;
5696;SDS011;2873;50.966;7.210;2023-02-26T03:40:15;5.88;;;2.40;;
5696;SDS011;2873;50.966;7.210;2023-02-26T03:42:52;3.97;;;2.35;;
5696;SDS011;2873;50.966;7.210;2023-02-26T03:45:23;3.00;;;2.20;;
5696;SDS011;2873;50.966;7.210;2023-02-26T03:47:54;4.97;;;2.43;;
5696;SDS011;2873;50.966;7.210;2023-02-26T03:52:56;3.67;;;2.30;;
5696;SDS011;2873;50.966;7.210;2023-02-26T03:55:41;3.63;;;2.30;;
5696;SDS011;2873;50.966;7.210;2023-02-26T03:58:17;4.43;;;2.40;;
5696;SDS011;2873;50.966;7.210;2023-02-26T04:00:43;3.75;;;1.70;;
5696;SDS011;2873;50.966;7.210;2023-02-26T04:03:13;3.42;;;2.05;;
5696;SDS011;2873;50.966;7.210;2023-02-26T04:05:49;3.50;;;1.80;;
5696;SDS011;2873;50.966;7.210;2023-02-26T04:08:16;2.42;;;1.90;;
5696;SDS011;2873;50.966;7.210;2023-02-26T04:10:50;3.42;;;1.88;;
5696;SDS011;2873;50.966;7.210;2023-02-26T04:13:19;3.70;;;1.70;;
5696;SDS011;2873;50.966;7.210;2023-02-26T04:15:45;5.50;;;1.77;;
5696;SDS011;2873;50.966;7.210;2023-02-26T04:18:10;4.00;;;1.63;;
5696;SDS011;2873;50.966;7.210;2023-02-26T04:20:36;6.63;;;1.88;;
5696;SDS011;2873;50.966;7.210;2023-02-26T04:23:02;2.30;;;1.57;;
5696;SDS011;2873;50.966;7.210;2023-02-26T04:25:27;6.05;;;1.90;;
5696;SDS011;2873;50.966;7.210;2023-02-26T04:27:53;2.83;;;1.60;;
5696;SDS011;2873;50.966;7.210;2023-02-26T04:30:18;2.40;;;1.50;;
5696;SDS011;2873;50.966;7.210;2023-02-26T04:32:44;4.60;;;1.50;;
5696;SDS011;2873;50.966;7.210;2023-02-26T04:35:09;1.40;;;1.30;;
5696;SDS011;2873;50.966;7.210;2023-02-26T04:37:35;4.45;;;1.30;;
5696;SDS011;2873;50.966;7.210;2023-02-26T04:40:01;2.13;;;1.30;;
5696;SDS011;2873;50.966;7.210;2023-02-26T04:42:26;2.77;;;1.40;;
5696;SDS011;2873;50.966;7.210;2023-02-26T04:44:52;3.60;;;1.23;;
5696;SDS011;2873;50.966;7.210;2023-02-26T04:47:17;3.30;;;1.60;;
5696;SDS011;2873;50.966;7.210;2023-02-26T04:49:43;3.10;;;1.30;;
5696;SDS011;2873;50.966;7.210;2023-02-26T04:52:08;3.40;;;1.40;;
5696;SDS011;2873;50.966;7.210;2023-02-26T04:54:34;3.65;;;1.20;;
5696;SDS011;2873;50.966;7.210;2023-02-26T04:56:59;1.40;;;1.20;;
5696;SDS011;2873;50.966;7.210;2023-02-26T04:59:25;3.63;;;1.67;;
5696;SDS011;2873;50.966;7.210;2023-02-26T05:01:51;4.72;;;1.90;;
5696;SDS011;2873;50.966;7.210;2023-02-26T05:04:16;3.13;;;1.40;;
5696;SDS011;2873;50.966;7.210;2023-02-26T05:06:42;2.17;;;1.20;;
5696;SDS011;2873;50.966;7.210;2023-02-26T05:09:07;2.90;;;1.70;;
5696;SDS011;2873;50.966;7.210;2023-02-26T05:11:33;3.30;;;1.60;;
5696;SDS011;2873;50.966;7.210;2023-02-26T05:13:58;3.83;;;1.50;;
5696;SDS011;2873;50.966;7.210;2023-02-26T05:16:24;3.30;;;1.40;;
5696;SDS011;2873;50.966;7.210;2023-02-26T05:18:49;3.10;;;1.63;;
5696;SDS011;2873;50.966;7.210;2023-02-26T05:21:15;3.60;;;2.07;;
5696;SDS011;2873;50.966;7.210;2023-02-26T05:23:41;4.70;;;2.38;;
5696;SDS011;2873;50.966;7.210;2023-02-26T05:26:06;2.90;;;1.40;;
5696;SDS011;2873;50.966;7.210;2023-02-26T05:28:32;3.83;;;1.60;;
5696;SDS011;2873;50.966;7.210;2023-02-26T05:30:58;2.88;;;1.60;;
5696;SDS011;2873;50.966;7.210;2023-02-26T05:33:23;3.00;;;1.60;;
5696;SDS011;2873;50.966;7.210;2023-02-26T05:35:49;2.90;;;1.60;;
5696;SDS011;2873;50.966;7.210;2023-02-26T05:38:15;4.73;;;1.70;;
5696;SDS011;2873;50.966;7.210;2023-02-26T05:40:41;6.60;;;1.60;;
5696;SDS011;2873;50.966;7.210;2023-02-26T05:43:06;3.77;;;1.90;;
5696;SDS011;2873;50.966;7.210;2023-02-26T05:45:32;3.60;;;1.70;;
5696;SDS011;2873;50.966;7.210;2023-02-26T05:47:58;1.87;;;1.77;;
5696;SDS011;2873;50.966;7.210;2023-02-26T05:50:24;2.10;;;2.00;;
5696;SDS011;2873;50.966;7.210;2023-02-26T05:52:50;4.05;;;1.52;;
5696;SDS011;2873;50.966;7.210;2023-02-26T05:55:16;5.37;;;1.90;;
5696;SDS011;2873;50.966;7.210;2023-02-26T05:57:42;6.45;;;2.08;;
5696;SDS011;2873;50.966;7.210;2023-02-26T06:00:07;1.80;;;1.70;;
5696;SDS011;2873;50.966;7.210;2023-02-26T06:02:34;3.55;;;1.90;;
5696;SDS011;2873;50.966;7.210;2023-02-26T06:04:59;5.32;;;2.30;;
5696;SDS011;2873;50.966;7.210;2023-02-26T06:07:25;1.97;;;1.77;;
5696;SDS011;2873;50.966;7.210;2023-02-26T06:09:51;4.17;;;1.90;;
5696;SDS011;2873;50.966;7.210;2023-02-26T06:12:16;4.72;;;2.45;;
5696;SDS011;2873;50.966;7.210;2023-02-26T06:14:42;4.20;;;2.23;;
5696;SDS011;2873;50.966;7.210;2023-02-26T06:17:07;2.63;;;2.20;;
5696;SDS011;2873;50.966;7.210;2023-02-26T06:19:33;3.77;;;2.47;;
5696;SDS011;2873;50.966;7.210;2023-02-26T06:21:59;3.60;;;2.20;;
5696;SDS011;2873;50.966;7.210;2023-02-26T06:24:24;4.45;;;2.35;;
5696;SDS011;2873;50.966;7.210;2023-02-26T06:26:50;2.03;;;1.90;;
5696;SDS011;2873;50.966;7.210;2023-02-26T06:29:16;2.80;;;2.60;;
5696;SDS011;2873;50.966;7.210;2023-02-26T06:31:43;2.95;;;2.40;;
5696;SDS011;2873;50.966;7.210;2023-02-26T06:34:08;4.28;;;2.50;;
5696;SDS011;2873;50.966;7.210;2023-02-26T06:36:34;4.40;;;2.88;;
5696;SDS011;2873;50.966;7.210;2023-02-26T06:39:00;4.10;;;3.07;;
5696;SDS011;2873;50.966;7.210;2023-02-26T06:41:25;3.42;;;2.45;;
5696;SDS011;2873;50.966;7.210;2023-02-26T06:43:51;3.07;;;2.77;;
5696;SDS011;2873;50.966;7.210;2023-02-26T06:46:16;4.63;;;2.80;;
5696;SDS011;2873;50.966;7.210;2023-02-26T06:48:42;7.72;;;2.78;;
5696;SDS011;2873;50.966;7.210;2023-02-26T06:51:07;3.37;;;3.07;;
5696;SDS011;2873;50.966;7.210;2023-02-26T06:53:33;3.33;;;2.83;;
5696;SDS011;2873;50.966;7.210;2023-02-26T06:55:59;2.90;;;2.60;;
5696;SDS011;2873;50.966;7.210;2023-02-26T06:58:25;3.87;;;3.03;;
5696;SDS011;2873;50.966;7.210;2023-02-26T07:00:50;4.83;;;2.50;;
5696;SDS011;2873;50.966;7.210;2023-02-26T07:03:16;4.90;;;3.50;;
5696;SDS011;2873;50.966;7.210;2023-02-26T07:05:43;3.40;;;2.70;;
5696;SDS011;2873;50.966;7.210;2023-02-26T07:08:09;5.82;;;2.50;;
5696;SDS011;2873;50.966;7.210;2023-02-26T07:10:35;2.80;;;2.60;;
5696;SDS011;2873;50.966;7.210;2023-02-26T07:13:01;4.20;;;2.60;;
5696;SDS011;2873;50.966;7.210;2023-02-26T07:15:28;5.07;;;2.80;;
5696;SDS011;2873;50.966;7.210;2023-02-26T07:17:54;3.00;;;2.70;;
5696;SDS011;2873;50.966;7.210;2023-02-26T07:20:20;6.00;;;3.10;;
5696;SDS011;2873;50.966;7.210;2023-02-26T07:22:46;6.35;;;3.60;;
5696;SDS011;2873;50.966;7.210;2023-02-26T07:25:12;7.25;;;3.75;;
5696;SDS011;2873;50.966;7.210;2023-02-26T07:27:38;4.18;;;3.88;;
5696;SDS011;2873;50.966;7.210;2023-02-26T07:30:04;4.60;;;3.00;;
5696;SDS011;2873;50.966;7.210;2023-02-26T07:32:31;2.70;;;2.50;;
5696;SDS011;2873;50.966;7.210;2023-02-26T07:34:57;3.65;;;2.85;;
5696;SDS011;2873;50.966;7.210;2023-02-26T07:37:23;5.30;;;3.10;;
5696;SDS011;2873;50.966;7.210;2023-02-26T07:39:48;2.87;;;2.43;;
5696;SDS011;2873;50.966;7.210;2023-02-26T07:42:14;7.07;;;3.20;;
5696;SDS011;2873;50.966;7.210;2023-02-26T07:44:40;2.72;;;2.53;;
5696;SDS011;2873;50.966;7.210;2023-02-26T07:47:05;3.00;;;2.60;;
5696;SDS011;2873;50.966;7.210;2023-02-26T07:49:31;4.10;;;2.77;;
5696;SDS011;2873;50.966;7.210;2023-02-26T07:51:58;4.22;;;2.60;;
5696;SDS011;2873;50.966;7.210;2023-02-26T07:54:23;2.50;;;2.30;;
5696;SDS011;2873;50.966;7.210;2023-02-26T07:56:49;4.10;;;2.40;;
5696;SDS011;2873;50.966;7.210;2023-02-26T07:59:15;2.20;;;2.10;;
5696;SDS011;2873;50.966;7.210;2023-02-26T08:01:40;2.50;;;2.00;;
5696;SDS011;2873;50.966;7.210;2023-02-26T08:04:06;3.17;;;2.60;;
5696;SDS011;2873;50.966;7.210;2023-02-26T08:06:32;3.20;;;2.20;;
5696;SDS011;2873;50.966;7.210;2023-02-26T08:08:57;5.45;;;2.80;;
5696;SDS011;2873;50.966;7.210;2023-02-26T08:11:23;4.00;;;3.60;;
5696;SDS011;2873;50.966;7.210;2023-02-26T08:13:48;4.03;;;2.47;;
5696;SDS011;2873;50.966;7.210;2023-02-26T08:16:14;3.00;;;2.87;;
5696;SDS011;2873;50.966;7.210;2023-02-26T08:18:39;2.90;;;2.35;;
5696;SDS011;2873;50.966;7.210;2023-02-26T08:21:05;3.43;;;2.30;;
5696;SDS011;2873;50.966;7.210;2023-02-26T08:23:30;2.20;;;2.10;;
5696;SDS011;2873;50.966;7.210;2023-02-26T08:26:14;2.50;;;1.90;;
5696;SDS011;2873;50.966;7.210;2023-02-26T08:28:40;2.53;;;2.10;;
5696;SDS011;2873;50.966;7.210;2023-02-26T08:31:05;2.33;;;2.10;;
5696;SDS011;2873;50.966;7.210;2023-02-26T08:33:31;2.30;;;1.80;;
5696;SDS011;2873;50.966;7.210;2023-02-26T08:35:57;5.50;;;2.10;;
5696;SDS011;2873;50.966;7.210;2023-02-26T08:38:25;2.30;;;2.10;;
5696;SDS011;2873;50.966;7.210;2023-02-26T08:40:52;2.40;;;2.00;;
5696;SDS011;2873;50.966;7.210;2023-02-26T08:43:18;7.70;;;5.15;;
5696;SDS011;2873;50.966;7.210;2023-02-26T08:45:44;8.05;;;6.30;;
5696;SDS011;2873;50.966;7.210;2023-02-26T08:48:10;3.45;;;2.97;;
5696;SDS011;2873;50.966;7.210;2023-02-26T08:50:36;3.50;;;2.40;;
5696;SDS011;2873;50.966;7.210;2023-02-26T08:53:02;3.00;;;1.90;;
5696;SDS011;2873;50.966;7.210;2023-02-26T08:55:28;2.67;;;2.00;;
5696;SDS011;2873;50.966;7.210;2023-02-26T08:57:53;2.95;;;2.60;;
5696;SDS011;2873;50.966;7.210;2023-02-26T09:00:19;4.90;;;2.30;;
5696;SDS011;2873;50.966;7.210;2023-02-26T09:02:45;3.80;;;2.20;;
5696;SDS011;2873;50.966;7.210;2023-02-26T09:05:10;8.93;;;6.82;;
5696;SDS011;2873;50.966;7.210;2023-02-26T09:07:37;6.77;;;6.10;;
5696;SDS011;2873;50.966;7.210;2023-02-26T09:10:03;5.60;;;2.70;;
5696;SDS011;2873;50.966;7.210;2023-02-26T09:12:30;2.63;;;1.90;;
5696;SDS011;2873;50.966;7.210;2023-02-26T09:14:56;3.20;;;2.90;;
5696;SDS011;2873;50.966;7.210;2023-02-26T09:17:23;3.28;;;2.35;;
5696;SDS011;2873;50.966;7.210;2023-02-26T09:19:49;2.13;;;1.95;;
5696;SDS011;2873;50.966;7.210;2023-02-26T09:22:14;1.57;;;1.50;;
5696;SDS011;2873;50.966;7.210;2023-02-26T09:24:40;1.80;;;1.70;;
5696;SDS011;2873;50.966;7.210;2023-02-26T09:27:06;2.63;;;1.80;;
5696;SDS011;2873;50.966;7.210;2023-02-26T09:29:31;2.10;;;1.90;;
5696;SDS011;2873;50.966;7.210;2023-02-26T09:31:57;1.87;;;1.77;;
5696;SDS011;2873;50.966;7.210;2023-02-26T09:34:22;3.30;;;1.70;;
5696;SDS011;2873;50.966;7.210;2023-02-26T09:36:48;3.10;;;2.90;;
5696;SDS011;2873;50.966;7.210;2023-02-26T09:39:13;6.57;;;4.50;;
5696;SDS011;2873;50.966;7.210;2023-02-26T09:41:43;3.88;;;2.50;;
5696;SDS011;2873;50.966;7.210;2023-02-26T09:44:26;1.73;;;1.60;;
5696;SDS011;2873;50.966;7.210;2023-02-26T09:49:49;2.92;;;1.10;;
5696;SDS011;2873;50.966;7.210;2023-02-26T09:52:34;3.88;;;1.30;;
5696;SDS011;2873;50.966;7.210;2023-02-26T09:57:39;1.50;;;1.40;;
5696;SDS011;2873;50.966;7.210;2023-02-26T10:00:31;1.88;;;1.35;;
5696;SDS011;2873;50.966;7.210;2023-02-26T10:08:19;2.20;;;1.40;;
5696;SDS011;2873;50.966;7.210;2023-02-26T10:13:36;3.53;;;1.20;;
5696;SDS011;2873;50.966;7.210;2023-02-26T10:16:14;1.70;;;1.33;;
5696;SDS011;2873;50.966;7.210;2023-02-26T10:18:48;4.20;;;1.20;;
5696;SDS011;2873;50.966;7.210;2023-02-26T10:24:10;1.50;;;1.33;;
5696;SDS011;2873;50.966;7.210;2023-02-26T10:26:44;2.95;;;1.10;;
5696;SDS011;2873;50.966;7.210;2023-02-26T10:29:15;1.40;;;1.00;;
5696;SDS011;2873;50.966;7.210;2023-02-26T10:31:50;2.63;;;1.30;;
5696;SDS011;2873;50.966;7.210;2023-02-26T10:34:38;1.70;;;1.15;;
5696;SDS011;2873;50.966;7.210;2023-02-26T10:37:45;2.60;;;0.80;;
5696;SDS011;2873;50.966;7.210;2023-02-26T10:45:51;1.83;;;1.50;;
5696;SDS011;2873;50.966;7.210;2023-02-26T10:51:31;1.50;;;1.40;;
5696;SDS011;2873;50.966;7.210;2023-02-26T10:56:38;2.78;;;2.10;;
5696;SDS011;2873;50.966;7.210;2023-02-26T10:59:03;1.30;;;1.20;;
5696;SDS011;2873;50.966;7.210;2023-02-26T11:01:29;3.60;;;1.70;;
5696;SDS011;2873;50.966;7.210;2023-02-26T11:06:57;1.40;;;1.30;;
5696;SDS011;2873;50.966;7.210;2023-02-26T11:09:36;5.70;;;1.40;;
5696;SDS011;2873;50.966;7.210;2023-02-26T11:12:06;2.38;;;1.40;;
5696;SDS011;2873;50.966;7.210;2023-02-26T11:14:41;1.48;;;1.38;;
5696;SDS011;2873;50.966;7.210;2023-02-26T11:17:20;2.03;;;1.30;;
5696;SDS011;2873;50.966;7.210;2023-02-26T11:19:55;2.75;;;1.20;;
5696;SDS011;2873;50.966;7.210;2023-02-26T11:22:33;2.10;;;1.08;;
5696;SDS011;2873;50.966;7.210;2023-02-26T11:25:04;2.40;;;1.08;;
5696;SDS011;2873;50.966;7.210;2023-02-26T11:27:31;3.95;;;1.00;;
5696;SDS011;2873;50.966;7.210;2023-02-26T11:30:21;2.08;;;0.90;;
5696;SDS011;2873;50.966;7.210;2023-02-26T11:32:51;1.30;;;1.00;;
5696;SDS011;2873;50.966;7.210;2023-02-26T11:35:22;1.48;;;0.90;;
5696;SDS011;2873;50.966;7.210;2023-02-26T11:37:57;2.10;;;1.00;;
5696;SDS011;2873;50.966;7.210;2023-02-26T11:40:27;2.55;;;0.80;;
5696;SDS011;2873;50.966;7.210;2023-02-26T11:43:05;0.63;;;0.60;;
5696;SDS011;2873;50.966;7.210;2023-02-26T11:45:35;0.90;;;0.70;;
5696;SDS011;2873;50.966;7.210;2023-02-26T11:48:06;1.00;;;0.80;;
5696;SDS011;2873;50.966;7.210;2023-02-26T11:50:40;1.00;;;0.80;;
5696;SDS011;2873;50.966;7.210;2023-02-26T11:53:17;2.40;;;0.70;;
5696;SDS011;2873;50.966;7.210;2023-02-26T11:56:07;2.10;;;0.80;;
5696;SDS011;2873;50.966;7.210;2023-02-26T11:58:37;1.10;;;0.80;;
5696;SDS011;2873;50.966;7.210;2023-02-26T12:01:05;1.63;;;1.08;;
5696;SDS011;2873;50.966;7.210;2023-02-26T12:03:33;3.50;;;1.00;;
5696;SDS011;2873;50.966;7.210;2023-02-26T12:06:03;1.60;;;0.63;;
5696;SDS011;2873;50.966;7.210;2023-02-26T12:08:33;2.08;;;1.45;;
5696;SDS011;2873;50.966;7.210;2023-02-26T12:13:40;0.80;;;0.80;;
5696;SDS011;2873;50.966;7.210;2023-02-26T12:22:01;0.82;;;0.82;;
5696;SDS011;2873;50.966;7.210;2023-02-26T12:24:44;1.13;;;0.90;;
5696;SDS011;2873;50.966;7.210;2023-02-26T12:27:18;3.00;;;1.30;;
5696;SDS011;2873;50.966;7.210;2023-02-26T12:39:46;0.98;;;0.88;;
5696;SDS011;2873;50.966;7.210;2023-02-26T12:42:08;1.65;;;0.98;;
5696;SDS011;2873;50.966;7.210;2023-02-26T12:55:41;1.55;;;0.90;;
5696;SDS011;2873;50.966;7.210;2023-02-26T13:01:17;3.80;;;1.20;;
5696;SDS011;2873;50.966;7.210;2023-02-26T13:06:31;4.85;;;0.90;;
5696;SDS011;2873;50.966;7.210;2023-02-26T13:09:24;1.45;;;1.35;;
5696;SDS011;2873;50.966;7.210;2023-02-26T13:20:51;4.60;;;3.97;;
5696;SDS011;2873;50.966;7.210;2023-02-26T13:23:22;1.52;;;1.23;;
5696;SDS011;2873;50.966;7.210;2023-02-26T13:25:56;1.30;;;0.80;;
5696;SDS011;2873;50.966;7.210;2023-02-26T13:34:00;3.60;;;2.85;;
5696;SDS011;2873;50.966;7.210;2023-02-26T13:36:29;3.00;;;1.80;;
5696;SDS011;2873;50.966;7.210;2023-02-26T13:39:05;1.63;;;1.35;;
5696;SDS011;2873;50.966;7.210;2023-02-26T13:48:08;1.50;;;1.30;;
5696;SDS011;2873;50.966;7.210;2023-02-26T13:53:34;2.20;;;0.73;;
5696;SDS011;2873;50.966;7.210;2023-02-26T13:58:42;1.65;;;0.95;;
5696;SDS011;2873;50.966;7.210;2023-02-26T14:01:14;1.35;;;0.60;;
5696;SDS011;2873;50.966;7.210;2023-02-26T14:06:33;1.13;;;0.82;;
5696;SDS011;2873;50.966;7.210;2023-02-26T14:09:28;2.93;;;1.87;;
5696;SDS011;2873;50.966;7.210;2023-02-26T14:11:58;1.00;;;0.90;;
5696;SDS011;2873;50.966;7.210;2023-02-26T14:14:43;0.90;;;0.90;;
5696;SDS011;2873;50.966;7.210;2023-02-26T14:20:16;0.80;;;0.80;;
5696;SDS011;2873;50.966;7.210;2023-02-26T14:22:49;1.83;;;1.10;;
5696;SDS011;2873;50.966;7.210;2023-02-26T14:25:18;0.80;;;0.80;;
5696;SDS011;2873;50.966;7.210;2023-02-26T14:28:16;1.83;;;0.82;;
5696;SDS011;2873;50.966;7.210;2023-02-26T14:30:50;0.80;;;0.80;;
5696;SDS011;2873;50.966;7.210;2023-02-26T14:33:26;0.80;;;0.80;;
5696;SDS011;2873;50.966;7.210;2023-02-26T14:35:54;1.20;;;0.80;;
5696;SDS011;2873;50.966;7.210;2023-02-26T14:38:33;1.10;;;1.00;;
5696;SDS011;2873;50.966;7.210;2023-02-26T14:43:34;2.30;;;0.90;;
5696;SDS011;2873;50.966;7.210;2023-02-26T14:46:05;2.00;;;0.90;;
5696;SDS011;2873;50.966;7.210;2023-02-26T14:48:32;1.38;;;0.85;;
5696;SDS011;2873;50.966;7.210;2023-02-26T14:59:52;1.20;;;0.90;;
5696;SDS011;2873;50.966;7.210;2023-02-26T15:05:16;1.50;;;1.10;;
5696;SDS011;2873;50.966;7.210;2023-02-26T15:08:18;1.20;;;1.05;;
5696;SDS011;2873;50.966;7.210;2023-02-26T15:19:31;1.10;;;0.80;;
5696;SDS011;2873;50.966;7.210;2023-02-26T15:22:34;1.40;;;0.90;;
5696;SDS011;2873;50.966;7.210;2023-02-26T15:25:15;3.42;;;1.20;;
5696;SDS011;2873;50.966;7.210;2023-02-26T15:28:02;2.07;;;0.90;;
5696;SDS011;2873;50.966;7.210;2023-02-26T15:30:30;1.40;;;0.80;;
5696;SDS011;2873;50.966;7.210;2023-02-26T15:32:58;2.80;;;1.08;;
5696;SDS011;2873;50.966;7.210;2023-02-26T15:35:27;1.40;;;0.70;;
5696;SDS011;2873;50.966;7.210;2023-02-26T15:37:56;1.10;;;0.80;;
5696;SDS011;2873;50.966;7.210;2023-02-26T15:40:25;0.80;;;0.80;;
5696;SDS011;2873;50.966;7.210;2023-02-26T15:42:55;0.90;;;0.90;;
5696;SDS011;2873;50.966;7.210;2023-02-26T15:45:25;1.52;;;0.65;;
5696;SDS011;2873;50.966;7.210;2023-02-26T15:48:03;0.80;;;0.80;;
5696;SDS011;2873;50.966;7.210;2023-02-26T15:50:33;1.02;;;0.70;;
5696;SDS011;2873;50.966;7.210;2023-02-26T15:53:02;1.80;;;0.70;;
5696;SDS011;2873;50.966;7.210;2023-02-26T15:55:31;1.30;;;0.70;;
5696;SDS011;2873;50.966;7.210;2023-02-26T15:58:02;1.50;;;0.80;;
5696;SDS011;2873;50.966;7.210;2023-02-26T16:00:31;0.70;;;0.70;;
5696;SDS011;2873;50.966;7.210;2023-02-26T16:02:59;0.95;;;0.75;;
5696;SDS011;2873;50.966;7.210;2023-02-26T16:05:25;2.00;;;0.82;;
5696;SDS011;2873;50.966;7.210;2023-02-26T16:07:52;2.40;;;0.60;;
5696;SDS011;2873;50.966;7.210;2023-02-26T16:13:00;1.00;;;0.60;;
5696;SDS011;2873;50.966;7.210;2023-02-26T16:15:33;2.40;;;1.20;;
5696;SDS011;2873;50.966;7.210;2023-02-26T16:18:02;1.00;;;0.90;;
5696;SDS011;2873;50.966;7.210;2023-02-26T16:20:37;3.30;;;1.10;;
5696;SDS011;2873;50.966;7.210;2023-02-26T16:23:06;0.80;;;0.80;;
5696;SDS011;2873;50.966;7.210;2023-02-26T16:25:49;1.10;;;0.80;;
5696;SDS011;2873;50.966;7.210;2023-02-26T16:28:37;2.10;;;0.80;;
5696;SDS011;2873;50.966;7.210;2023-02-26T16:31:14;2.00;;;1.00;;
5696;SDS011;2873;50.966;7.210;2023-02-26T16:33:50;2.25;;;1.02;;
5696;SDS011;2873;50.966;7.210;2023-02-26T16:36:18;1.77;;;1.10;;
5696;SDS011;2873;50.966;7.210;2023-02-26T16:38:49;2.22;;;0.80;;
5696;SDS011;2873;50.966;7.210;2023-02-26T16:41:22;1.38;;;0.93;;
5696;SDS011;2873;50.966;7.210;2023-02-26T16:43:52;1.25;;;0.98;;
5696;SDS011;2873;50.966;7.210;2023-02-26T16:46:30;1.20;;;1.10;;
5696;SDS011;2873;50.966;7.210;2023-02-26T16:51:48;2.20;;;0.68;;
5696;SDS011;2873;50.966;7.210;2023-02-26T16:54:25;2.17;;;0.90;;
5696;SDS011;2873;50.966;7.210;2023-02-26T16:57:57;1.30;;;1.20;;
5696;SDS011;2873;50.966;7.210;2023-02-26T17:00:05;0.90;;;0.90;;
5696;SDS011;2873;50.966;7.210;2023-02-26T17:02:41;1.10;;;1.10;;
5696;SDS011;2873;50.966;7.210;2023-02-26T17:08:14;4.00;;;0.90;;
5696;SDS011;2873;50.966;7.210;2023-02-26T17:10:39;2.20;;;1.00;;
5696;SDS011;2873;50.966;7.210;2023-02-26T17:13:18;0.80;;;0.80;;
5696;SDS011;2873;50.966;7.210;2023-02-26T17:15:51;1.00;;;0.70;;
5696;SDS011;2873;50.966;7.210;2023-02-26T17:18:18;1.00;;;0.90;;
5696;SDS011;2873;50.966;7.210;2023-02-26T17:20:44;1.80;;;1.30;;
5696;SDS011;2873;50.966;7.210;2023-02-26T17:23:12;2.20;;;1.00;;
5696;SDS011;2873;50.966;7.210;2023-02-26T17:25:43;1.50;;;0.80;;
5696;SDS011;2873;50.966;7.210;2023-02-26T17:28:16;1.95;;;0.90;;
5696;SDS011;2873;50.966;7.210;2023-02-26T17:30:58;1.50;;;0.95;;
5696;SDS011;2873;50.966;7.210;2023-02-26T17:33:24;0.95;;;0.82;;
5696;SDS011;2873;50.966;7.210;2023-02-26T17:35:49;2.40;;;0.90;;
5696;SDS011;2873;50.966;7.210;2023-02-26T17:38:16;1.90;;;1.20;;
5696;SDS011;2873;50.966;7.210;2023-02-26T17:40:43;1.40;;;1.30;;
5696;SDS011;2873;50.966;7.210;2023-02-26T17:43:11;2.08;;;1.02;;
5696;SDS011;2873;50.966;7.210;2023-02-26T17:45:38;1.50;;;1.00;;
5696;SDS011;2873;50.966;7.210;2023-02-26T17:48:04;1.45;;;1.00;;
5696;SDS011;2873;50.966;7.210;2023-02-26T17:53:11;2.10;;;1.20;;
5696;SDS011;2873;50.966;7.210;2023-02-26T17:55:37;1.25;;;1.00;;
5696;SDS011;2873;50.966;7.210;2023-02-26T17:58:04;1.92;;;1.00;;
5696;SDS011;2873;50.966;7.210;2023-02-26T18:00:31;1.60;;;1.10;;
5696;SDS011;2873;50.966;7.210;2023-02-26T18:02:59;1.15;;;1.15;;
5696;SDS011;2873;50.966;7.210;2023-02-26T18:05:24;1.70;;;1.30;;
5696;SDS011;2873;50.966;7.210;2023-02-26T18:07:51;3.85;;;1.25;;
5696;SDS011;2873;50.966;7.210;2023-02-26T18:10:21;1.70;;;0.90;;
5696;SDS011;2873;50.966;7.210;2023-02-26T18:12:48;1.95;;;1.10;;
5696;SDS011;2873;50.966;7.210;2023-02-26T18:15:16;1.70;;;1.20;;
5696;SDS011;2873;50.966;7.210;2023-02-26T18:17:42;2.58;;;1.30;;
5696;SDS011;2873;50.966;7.210;2023-02-26T18:20:10;3.00;;;1.10;;
5696;SDS011;2873;50.966;7.210;2023-02-26T18:22:42;1.50;;;1.20;;
5696;SDS011;2873;50.966;7.210;2023-02-26T18:25:08;2.10;;;1.00;;
5696;SDS011;2873;50.966;7.210;2023-02-26T18:27:36;3.30;;;1.30;;
5696;SDS011;2873;50.966;7.210;2023-02-26T18:30:01;2.30;;;1.15;;
5696;SDS011;2873;50.966;7.210;2023-02-26T18:32:28;1.50;;;1.40;;
5696;SDS011;2873;50.966;7.210;2023-02-26T18:34:57;2.95;;;1.10;;
5696;SDS011;2873;50.966;7.210;2023-02-26T18:37:23;3.50;;;1.30;;
5696;SDS011;2873;50.966;7.210;2023-02-26T18:39:51;1.60;;;1.50;;
5696;SDS011;2873;50.966;7.210;2023-02-26T18:42:18;1.40;;;1.30;;
5696;SDS011;2873;50.966;7.210;2023-02-26T18:44:49;1.70;;;1.40;;
5696;SDS011;2873;50.966;7.210;2023-02-26T18:47:16;2.00;;;1.25;;
5696;SDS011;2873;50.966;7.210;2023-02-26T18:49:43;3.78;;;1.50;;
5696;SDS011;2873;50.966;7.210;2023-02-26T18:52:09;2.00;;;1.40;;